Main page
METAR-TAF:

METAR-TAF

Airports :

Wahoo Municipal Airport

Wahoo, Nebraska, United States

latitude: 41-14-26N, longitude: 096-35-40W, elevation: 1223 ft

Current weather observation

The report was made 23 minutes ago, at 12:35 UTC
Wind 7 mph from the South/Southeast
Temperature 23°F
Humidity 100%
Pressure 30.09 in. Hg
Visibility: 5 miles
Scattered clouds at a height of 11000 ft
mist

METAR: KAHQ 291235Z AUTO 15006KT 5SM BR SCT110 M05/M05 A3009 RMK AO2 T10471048

Time: 06:58 (12:58 UTC)


TAF: missing

Weather observations and forecasts of more than 4000 airports (METAR and TAF reports).

The available stations are represented by yellow and red dots on the map.

Hover mouse over dot to see the name of the station.

Then click to see weather observations and forecasts.

To change the map : click on the green buttons with a black cross to zoom in, on the green button with a dash to zoom out, or on the green arrows for adjacent maps.


METAR-TAF: